Time;durP1;ratioP1;P1;durP2;ratioP2;P2;SDS_P1;SDS_P2;PMS_P1;PMS_P2;Temp;Humidity;BMP_temperature;BMP_pressure;BME280_temperature;BME280_humidity;BME280_pressure;Samples;Min_cycle;Max_cycle;Signal;HPM_P1;HPM_P2
2021/03/12 00:02:10;;;;;;;12.65;7.45;;;;;;;8.17;77.52;98631.68;2775593;85;21182;-61
2021/03/12 00:06:14;;;;;;;13.60;7.20;;;;;;;8.11;77.66;98618.06;2776597;85;21186;-62
2021/03/12 00:10:21;;;;;;;15.60;8.60;;;;;;;8.11;77.80;98635.28;2757604;85;21574;-61
2021/03/12 00:14:24;;;;;;;6.55;5.95;;;;;;;8.19;78.09;98653.55;2728924;86;21649;-61
2021/03/12 00:18:38;;;;;;;11.20;7.45;;;;;;;8.26;78.34;98663.90;2729247;86;21209;-60
2021/03/12 00:22:44;;;;;;;14.05;8.85;;;;;;;8.35;78.30;98662.98;2728838;86;21184;-61
2021/03/12 00:26:47;;;;;;;13.72;8.85;;;;;;;8.41;78.22;98674.80;2729150;86;21201;-60
2021/03/12 00:30:52;;;;;;;16.12;8.05;;;;;;;8.43;78.31;98692.19;2728980;86;21149;-62
2021/03/12 00:34:54;;;;;;;13.45;10.08;;;;;;;8.50;78.34;98682.36;2729224;86;21169;-61
2021/03/12 00:38:58;;;;;;;12.25;8.23;;;;;;;8.58;78.25;98693.02;2729171;86;21169;-61
2021/03/12 00:43:00;;;;;;;14.18;9.10;;;;;;;8.61;78.12;98687.92;2728932;86;21157;-60
2021/03/12 00:47:03;;;;;;;17.12;9.73;;;;;;;8.64;78.06;98685.77;2728811;86;21189;-60
2021/03/12 00:51:08;;;;;;;15.03;11.00;;;;;;;8.67;78.07;98681.52;2728791;86;21185;-61
2021/03/12 00:55:11;;;;;;;16.00;11.30;;;;;;;8.64;77.99;98675.17;2728652;86;21201;-60
2021/03/12 00:59:15;;;;;;;14.23;12.13;;;;;;;8.62;77.79;98678.47;2728723;86;21134;-62
2021/03/12 01:03:17;;;;;;;16.05;10.88;;;;;;;8.58;77.54;98671.81;2728799;85;21201;-60
2021/03/12 01:07:20;;;;;;;13.22;11.10;;;;;;;8.53;77.34;98663.50;2728389;86;21205;-60
2021/03/12 01:11:24;;;;;;;12.70;9.40;;;;;;;8.47;77.22;98669.39;2728538;85;21181;-61
2021/03/12 01:15:27;;;;;;;20.50;12.05;;;;;;;8.43;77.21;98652.95;2728242;87;21177;-62
2021/03/12 01:19:30;;;;;;;10.95;9.33;;;;;;;8.38;77.23;98660.02;2728275;87;21181;-60
2021/03/12 01:23:33;;;;;;;11.57;9.55;;;;;;;8.35;77.28;98661.66;2728007;86;21667;-61
2021/03/12 01:27:40;;;;;;;15.75;11.65;;;;;;;8.33;77.49;98664.95;2728285;87;21544;-61
2021/03/12 01:31:43;;;;;;;15.48;12.47;;;;;;;8.36;77.50;98665.15;2728108;86;21201;-60
2021/03/12 01:35:46;;;;;;;14.43;12.53;;;;;;;8.37;77.64;98678.23;2728230;86;21170;-60
2021/03/12 01:39:49;;;;;;;14.45;11.03;;;;;;;8.34;77.79;98681.19;2728039;86;21218;-63
2021/03/12 01:43:52;;;;;;;16.15;12.98;;;;;;;8.33;78.07;98678.67;2728071;86;21161;-61
2021/03/12 01:47:59;;;;;;;15.58;11.53;;;;;;;8.35;78.28;98684.17;2727987;86;21161;-62
2021/03/12 01:52:02;;;;;;;18.27;11.60;;;;;;;8.38;78.33;98683.87;2728331;86;21150;-60
2021/03/12 01:56:06;;;;;;;13.50;10.90;;;;;;;8.42;78.52;98693.17;2728086;87;21202;-61
2021/03/12 02:00:11;;;;;;;19.48;11.70;;;;;;;8.44;78.54;98683.77;2727937;86;21644;-62
2021/03/12 02:04:14;;;;;;;18.92;12.28;;;;;;;8.46;78.53;98686.27;2727783;86;21157;-61
2021/03/12 02:08:17;;;;;;;22.60;15.32;;;;;;;8.48;78.45;98685.62;2725611;87;21620;-60
2021/03/12 02:12:29;;;;;;;17.37;9.90;;;;;;;8.48;78.40;98746.58;2725500;87;21166;-60
2021/03/12 02:16:51;;;;;;;15.80;9.08;;;;;;;8.51;77.95;98725.92;2725728;86;21201;-60
2021/03/12 02:21:16;;;;;;;12.85;6.62;;;;;;;8.60;78.26;98724.69;2725763;86;21209;-60
2021/03/12 02:25:21;;;;;;;8.73;4.20;;;;;;;8.80;78.02;98754.03;2725676;86;21177;-60
2021/03/12 02:29:26;;;;;;;4.28;3.00;;;;;;;8.76;78.57;98753.16;2725564;87;21627;-61
2021/03/12 02:33:29;;;;;;;5.58;3.30;;;;;;;8.65;79.65;98753.73;2725668;87;21604;-62
2021/03/12 02:37:33;;;;;;;3.00;2.70;;;;;;;8.64;79.96;98762.64;2725660;87;22222;-61
2021/03/12 02:41:40;;;;;;;7.12;3.35;;;;;;;8.65;79.87;98769.64;2725550;86;21149;-61
2021/03/12 02:45:44;;;;;;;7.15;3.47;;;;;;;8.65;79.82;98772.77;2725863;86;21189;-61
2021/03/12 02:49:49;;;;;;;6.78;2.83;;;;;;;8.65;79.63;98772.30;2725908;86;21214;-61
2021/03/12 02:53:53;;;;;;;3.05;2.22;;;;;;;8.61;79.76;98773.55;2725810;87;21221;-62
2021/03/12 02:57:56;;;;;;;5.22;2.08;;;;;;;8.56;79.75;98770.53;2725673;87;21467;-61
2021/03/12 03:02:00;;;;;;;7.10;2.17;;;;;;;8.51;79.97;98806.75;2725526;87;21635;-61
2021/03/12 03:06:06;;;;;;;3.40;1.70;;;;;;;8.43;80.31;98796.86;2726446;86;21482;-61
2021/03/12 03:10:11;;;;;;;1.45;1.12;;;;;;;8.44;80.36;98791.90;2728177;86;21205;-61
2021/03/12 03:14:16;;;;;;;5.65;2.00;;;;;;;8.35;81.10;98798.10;2727818;86;21627;-61
2021/03/12 03:18:19;;;;;;;2.98;2.25;;;;;;;8.19;82.61;98804.52;2727968;86;21706;-61
2021/03/12 03:22:22;;;;;;;5.12;1.95;;;;;;;8.13;82.94;98796.20;2728055;87;21193;-62
2021/03/12 03:26:25;;;;;;;2.05;1.87;;;;;;;8.15;82.83;98798.20;2730888;85;21165;-60
2021/03/12 03:30:29;;;;;;;3.37;2.10;;;;;;;8.22;82.59;98805.08;2775660;85;21218;-61
2021/03/12 03:34:31;;;;;;;2.37;1.42;;;;;;;8.29;82.20;98813.27;2775545;85;21644;-59
2021/03/12 03:38:34;;;;;;;1.72;1.62;;;;;;;8.34;81.89;98817.63;2775794;85;21178;-61
2021/03/12 03:42:41;;;;;;;3.02;1.37;;;;;;;8.34;81.64;98822.93;2775786;85;21174;-60
2021/03/12 03:46:46;;;;;;;3.67;1.62;;;;;;;8.37;81.32;98829.77;2775557;85;21182;-60
2021/03/12 03:50:51;;;;;;;3.50;1.20;;;;;;;8.40;81.05;98835.58;2775503;85;21573;-60
2021/03/12 03:54:55;;;;;;;2.75;1.40;;;;;;;8.42;80.83;98855.32;2776095;85;21154;-60
2021/03/12 03:59:00;;;;;;;2.47;0.80;;;;;;;8.41;80.77;98858.45;2775664;85;21200;-62
2021/03/12 04:03:05;;;;;;;1.42;1.22;;;;;;;8.38;80.68;98866.69;2775407;85;21165;-60
2021/03/12 04:07:09;;;;;;;1.20;0.50;;;;;;;8.33;80.53;98865.45;2775869;85;21644;-61
2021/03/12 04:11:13;;;;;;;2.58;1.12;;;;;;;8.21;80.81;98873.61;2775935;85;21583;-61
2021/03/12 04:15:17;;;;;;;0.88;0.53;;;;;;;7.93;81.92;98876.19;2775859;85;21146;-60
2021/03/12 04:19:23;;;;;;;1.40;0.72;;;;;;;7.83;82.30;98883.34;2775852;85;21146;-60
2021/03/12 04:23:26;;;;;;;4.30;1.03;;;;;;;7.76;82.54;98868.98;2775898;85;21218;-60
2021/03/12 04:27:30;;;;;;;1.10;0.70;;;;;;;7.68;82.40;98883.77;2775735;85;21476;-60
2021/03/12 04:31:34;;;;;;;6.83;1.45;;;;;;;7.56;82.47;98889.70;2776109;85;21191;-63
2021/03/12 04:35:37;;;;;;;5.15;0.80;;;;;;;7.46;82.93;98880.93;2775827;85;21194;-61
2021/03/12 04:39:41;;;;;;;2.40;1.57;;;;;;;7.36;83.84;98880.12;2775899;85;21221;-60
2021/03/12 04:43:44;;;;;;;5.33;2.10;;;;;;;7.35;84.14;98883.73;2775880;85;21681;-61
2021/03/12 04:47:49;;;;;;;2.77;1.20;;;;;;;7.36;84.30;98870.86;2775621;85;21122;-61
2021/03/12 04:51:53;;;;;;;2.52;1.27;;;;;;;7.32;84.53;98882.70;2775813;85;21190;-62
2021/03/12 04:55:57;;;;;;;3.00;1.17;;;;;;;7.27;85.00;98895.86;2775716;85;21202;-61
2021/03/12 05:00:00;;;;;;;2.02;1.45;;;;;;;7.22;85.23;98883.52;2775668;85;21186;-62
2021/03/12 05:04:06;;;;;;;1.90;0.95;;;;;;;7.25;85.27;98872.66;2775748;85;21621;-61
2021/03/12 05:08:11;;;;;;;2.77;1.10;;;;;;;7.22;85.31;98868.97;2775772;85;21186;-60
2021/03/12 05:12:15;;;;;;;2.67;1.92;;;;;;;7.24;85.23;98860.41;2775950;85;21150;-62
2021/03/12 05:16:19;;;;;;;4.33;2.25;;;;;;;7.24;85.18;98864.38;2751047;85;21198;-64
2021/03/12 05:20:24;;;;;;;1.95;1.27;;;;;;;7.24;85.25;98857.77;2775726;85;21146;-64
2021/03/12 05:24:27;;;;;;;11.80;6.58;;;;;;;7.25;85.10;98858.61;2775489;85;21150;-62
2021/03/12 05:28:30;;;;;;;11.85;6.15;;;;;;;7.25;85.18;98895.64;2775568;85;21202;-61
2021/03/12 05:32:33;;;;;;;4.58;1.85;;;;;;;7.22;85.48;98888.80;2775632;85;21182;-62
2021/03/12 05:36:38;;;;;;;3.30;1.50;;;;;;;7.26;85.58;98882.26;2775847;85;21543;-62
2021/03/12 05:40:42;;;;;;;3.20;1.80;;;;;;;7.22;85.49;98909.97;2776117;85;21584;-61
2021/03/12 05:44:47;;;;;;;2.37;1.98;;;;;;;7.15;85.86;98935.30;2775817;85;21174;-61
2021/03/12 05:48:53;;;;;;;2.02;1.87;;;;;;;7.17;86.05;98947.05;2775818;85;21666;-61
2021/03/12 05:52:57;;;;;;;4.10;2.50;;;;;;;7.21;86.03;98956.41;2776608;85;21198;-63
2021/03/12 05:57:01;;;;;;;3.12;2.75;;;;;;;7.25;85.96;98961.27;2775758;85;21194;-62
2021/03/12 06:01:04;;;;;;;3.27;2.40;;;;;;;7.22;85.85;98969.98;2750596;85;21134;-61
2021/03/12 06:05:09;;;;;;;6.95;3.92;;;;;;;7.22;85.69;98962.86;2775827;85;21142;-61
2021/03/12 06:09:12;;;;;;;5.17;2.53;;;;;;;7.27;85.93;98975.22;2775901;85;21186;-62
2021/03/12 06:13:15;;;;;;;5.12;2.10;;;;;;;7.27;85.67;98973.89;2775783;85;21181;-62
2021/03/12 06:17:45;;;;;;;3.12;1.77;;;;;;;7.24;85.60;98984.72;2775585;85;21198;-61
2021/03/12 06:21:50;;;;;;;2.58;2.10;;;;;;;7.26;85.56;99006.58;2775661;85;21123;-62
2021/03/12 06:25:53;;;;;;;1.77;1.30;;;;;;;7.23;85.77;99014.78;2775366;85;21186;-62
2021/03/12 06:30:01;;;;;;;3.90;2.72;;;;;;;7.23;85.70;99029.34;2775581;85;21629;-63
2021/03/12 06:34:10;;;;;;;1.85;1.65;;;;;;;7.29;85.11;99040.72;2775858;85;21480;-61
2021/03/12 06:38:14;;;;;;;2.00;1.70;;;;;;;7.26;85.08;99039.64;2750327;85;28931;-61
2021/03/12 06:42:18;;;;;;;5.28;2.05;;;;;;;7.34;85.08;99050.05;2775610;85;21170;-61
2021/03/12 06:46:21;;;;;;;1.95;1.52;;;;;;;7.24;84.69;99052.16;2776047;85;21199;-61
2021/03/12 06:50:27;;;;;;;4.55;2.92;;;;;;;7.18;84.91;99047.92;2775513;85;21592;-62
2021/03/12 06:54:32;;;;;;;;;;;;;;;7.19;85.16;99085.30;2750831;85;21154;-61
2021/03/12 06:58:35;;;;;;;6.50;2.45;;;;;;;7.10;85.24;99089.58;2776201;85;20179;-61
2021/03/12 07:02:38;;;;;;;5.42;2.22;;;;;;;7.09;85.43;99103.77;2776336;85;21182;-61
2021/03/12 07:06:47;;;;;;;14.35;2.98;;;;;;;7.08;85.60;99115.33;2775900;85;21190;-61
2021/03/12 07:10:50;;;;;;;7.65;3.17;;;;;;;7.05;85.83;99128.78;2776575;85;21177;-62
2021/03/12 07:14:55;;;;;;;4.20;2.20;;;;;;;7.05;86.10;99108.95;2776358;85;21185;-63
2021/03/12 07:18:59;;;;;;;6.05;2.72;;;;;;;7.01;86.22;99140.13;2776224;85;21901;-61
2021/03/12 07:23:02;;;;;;;3.00;2.33;;;;;;;7.06;86.48;99143.68;2776280;85;21134;-60
2021/03/12 07:27:07;;;;;;;2.77;1.17;;;;;;;7.08;86.40;99154.99;2776427;85;21635;-61
2021/03/12 07:31:14;;;;;;;2.42;1.37;;;;;;;7.20;86.52;99148.63;2776681;85;21182;-62
2021/03/12 07:35:18;;;;;;;1.62;1.52;;;;;;;7.34;86.06;99161.16;2776470;85;21592;-61
2021/03/12 07:39:24;;;;;;;2.17;0.90;;;;;;;7.41;85.67;99152.56;2776383;85;21596;-61
2021/03/12 07:43:27;;;;;;;;;;;;;;;7.49;85.07;99179.68;2778629;85;21699;-60
2021/03/12 07:47:31;;;;;;;1.07;0.90;;;;;;;7.48;84.73;99175.36;2816685;83;20188;-62
2021/03/12 07:51:47;;;;;;;2.00;1.00;;;;;;;7.55;84.18;99193.69;2767448;86;21184;-62
2021/03/12 07:55:51;;;;;;;5.40;2.90;;;;;;;7.68;84.76;99200.58;2816718;84;21136;-62
2021/03/12 07:59:58;;;;;;;8.55;5.03;;;;;;;7.84;84.47;99194.27;2767233;86;21324;-61
2021/03/12 08:04:03;;;;;;;5.65;4.87;;;;;;;8.13;85.12;99218.67;2824869;84;21204;-61
2021/03/12 08:08:31;;;;;;;6.50;5.55;;;;;;;8.49;84.21;99218.15;2792270;84;21164;-62
2021/03/12 08:12:37;;;;;;;4.22;3.80;;;;;;;8.77;83.47;99228.09;2810234;84;21622;-63
2021/03/12 08:17:04;;;;;;;3.75;2.58;;;;;;;9.02;82.71;99241.27;2815463;84;21183;-62
2021/03/12 08:21:31;;;;;;;2.98;1.87;;;;;;;8.93;80.65;99238.97;2817603;84;21616;-62
2021/03/12 08:25:44;;;;;;;5.55;3.85;;;;;;;8.80;79.56;99232.64;2771495;85;21163;-62
2021/03/12 08:29:48;;;;;;;4.50;3.50;;;;;;;8.79;80.90;99252.17;2818139;84;21154;-63
2021/03/12 08:33:51;;;;;;;4.83;3.02;;;;;;;8.82;81.57;99247.06;2817775;84;21147;-62
2021/03/12 08:37:54;;;;;;;4.70;2.95;;;;;;;8.87;80.48;99256.78;2771675;85;21173;-61
2021/03/12 08:41:57;;;;;;;4.75;2.47;;;;;;;8.91;79.54;99258.65;2817727;84;21138;-63
2021/03/12 08:46:04;;;;;;;3.52;2.25;;;;;;;8.98;79.09;99264.58;2817922;84;21131;-64
2021/03/12 08:50:10;;;;;;;2.83;2.05;;;;;;;9.08;78.72;99273.03;2770233;85;21580;-62
2021/03/12 08:54:15;;;;;;;3.42;1.95;;;;;;;9.20;79.20;99270.55;2817940;84;21162;-61
2021/03/12 08:58:30;;;;;;;2.60;1.67;;;;;;;9.06;78.26;99277.65;2817766;84;21584;-62
2021/03/12 09:02:33;;;;;;;2.47;1.92;;;;;;;8.89;78.87;99282.67;2770792;85;21633;-62
2021/03/12 09:06:39;;;;;;;2.65;1.70;;;;;;;8.83;79.88;99304.42;2814073;84;21170;-62
2021/03/12 09:10:44;;;;;;;4.15;2.85;;;;;;;8.91;80.32;99309.89;2736147;86;21189;-61
2021/03/12 09:14:47;;;;;;;5.00;2.65;;;;;;;9.14;80.33;99309.60;2736129;86;21189;-62
2021/03/12 09:18:54;;;;;;;5.37;2.47;;;;;;;9.21;77.58;99293.45;2764229;85;21161;-63
2021/03/12 09:22:58;;;;;;;9.73;3.73;;;;;;;9.28;77.28;99293.26;2764646;86;21149;-63
2021/03/12 09:27:01;;;;;;;3.12;2.47;;;;;;;9.47;76.59;99306.63;2764567;85;21721;-62
2021/03/12 09:31:07;;;;;;;5.15;2.83;;;;;;;9.74;74.05;99300.55;2764473;85;21193;-63
2021/03/12 09:35:17;;;;;;;4.83;3.02;;;;;;;9.94;74.47;99317.75;2764621;85;21165;-63
2021/03/12 09:39:23;;;;;;;2.70;2.45;;;;;;;10.26;73.82;99317.83;2764631;86;21141;-63
2021/03/12 09:43:26;;;;;;;3.37;2.35;;;;;;;10.52;73.02;99314.02;2764882;86;21161;-61
2021/03/12 09:47:32;;;;;;;2.58;2.12;;;;;;;10.59;72.10;99314.23;2764570;85;21169;-64
2021/03/12 09:51:36;;;;;;;2.67;2.22;;;;;;;10.45;69.15;99285.00;2764564;85;21631;-62
2021/03/12 09:55:40;;;;;;;2.15;1.85;;;;;;;10.39;69.80;99302.34;2764396;86;21750;-62
2021/03/12 09:59:53;;;;;;;4.42;2.30;;;;;;;10.34;69.27;99301.97;2764581;85;21607;-63
2021/03/12 10:03:55;;;;;;;3.02;2.00;;;;;;;10.26;70.00;99325.80;2764630;85;21160;-63
2021/03/12 10:08:05;;;;;;;3.33;3.00;;;;;;;10.38;70.41;99331.25;2769867;85;21175;-64
2021/03/12 10:12:27;;;;;;;3.33;3.00;;;;;;;10.44;68.77;99312.58;2811787;84;21160;-62
2021/03/12 10:16:29;;;;;;;1.67;1.45;;;;;;;10.60;69.63;99325.20;2766735;86;21148;-65
2021/03/12 10:20:37;;;;;;;4.67;2.15;;;;;;;10.65;69.27;99332.27;2812284;84;21116;-64
2021/03/12 10:24:40;;;;;;;3.25;1.62;;;;;;;10.88;68.09;99317.19;2766342;86;21153;-64
2021/03/12 10:28:48;;;;;;;2.08;1.85;;;;;;;10.85;64.95;99323.64;2811969;84;21144;-63
2021/03/12 10:32:55;;;;;;;2.50;1.70;;;;;;;10.81;66.37;99321.45;2766461;86;21173;-63
2021/03/12 10:37:17;;;;;;;4.20;2.67;;;;;;;10.79;66.81;99327.39;2811889;84;21152;-63
2021/03/12 10:41:25;;;;;;;2.95;1.77;;;;;;;10.82;66.59;99336.44;2766743;86;21202;-61
2021/03/12 10:45:32;;;;;;;3.10;2.42;;;;;;;10.82;64.82;99314.64;2812103;83;21164;-63
2021/03/12 10:49:35;;;;;;;2.27;1.62;;;;;;;10.81;65.23;99337.42;2766503;86;21173;-63
2021/03/12 10:53:54;;;;;;;4.92;2.25;;;;;;;10.76;65.06;99355.63;2811998;84;21133;-64
2021/03/12 10:57:59;;;;;;;4.17;2.80;;;;;;;10.69;64.29;99341.61;2766292;86;21153;-64
2021/03/12 11:02:15;;;;;;;5.90;2.85;;;;;;;10.64;64.30;99341.71;2812336;84;21442;-63
2021/03/12 11:06:23;;;;;;;3.20;2.60;;;;;;;10.60;64.51;99358.95;2766638;86;21664;-63
2021/03/12 11:10:26;;;;;;;4.40;2.80;;;;;;;10.55;65.13;99373.55;2786668;84;21149;-63
2021/03/12 11:14:32;;;;;;;4.62;2.98;;;;;;;10.49;64.21;99356.01;2767006;86;21193;-62
2021/03/12 11:18:34;;;;;;;5.42;1.95;;;;;;;10.47;64.02;99351.34;2812140;84;21136;-63
2021/03/12 11:22:38;;;;;;;6.12;2.72;;;;;;;10.69;64.00;99360.23;2766985;86;21149;-62
2021/03/12 11:26:42;;;;;;;2.22;1.77;;;;;;;10.71;65.01;99379.53;2812432;84;21160;-62
2021/03/12 11:30:45;;;;;;;3.27;2.00;;;;;;;10.70;64.17;99373.88;2766820;86;21211;-64
2021/03/12 11:34:50;;;;;;;2.35;2.05;;;;;;;10.73;64.24;99347.95;2812192;84;21156;-63
2021/03/12 11:38:53;;;;;;;3.35;1.92;;;;;;;10.62;64.52;99356.50;2766769;86;21165;-64
2021/03/12 11:42:56;;;;;;;3.08;2.40;;;;;;;10.62;65.46;99373.79;2812048;84;21097;-65
2021/03/12 11:46:59;;;;;;;3.40;2.27;;;;;;;10.51;64.50;99360.69;2766311;84;21173;-61
2021/03/12 11:51:02;;;;;;;4.03;2.12;;;;;;;10.61;65.71;99368.61;2811854;84;21155;-62
2021/03/12 11:55:09;;;;;;;4.08;2.00;;;;;;;10.76;64.57;99353.83;2766976;86;21190;-63
2021/03/12 11:59:13;;;;;;;4.83;2.77;;;;;;;10.87;64.06;99356.76;2811852;84;21137;-64
2021/03/12 12:03:16;;;;;;;4.05;1.82;;;;;;;11.03;62.94;99368.56;2766661;86;21186;-62
2021/03/12 12:07:19;;;;;;;7.40;1.90;;;;;;;11.20;62.58;99341.11;2806790;84;21601;-64
2021/03/12 12:11:24;;;;;;;4.87;2.10;;;;;;;11.31;64.41;99362.66;2807740;84;21111;-62
2021/03/12 12:15:29;;;;;;;2.92;2.33;;;;;;;11.34;63.12;99354.37;2807840;84;21182;-63
2021/03/12 12:19:33;;;;;;;2.67;2.45;;;;;;;11.28;61.74;99346.49;2808135;84;21183;-63
2021/03/12 12:23:36;;;;;;;4.35;2.50;;;;;;;11.32;63.32;99356.83;2808021;84;21171;-63
2021/03/12 12:27:40;;;;;;;4.50;1.85;;;;;;;11.46;64.07;99369.61;2808048;84;21171;-62
2021/03/12 12:31:43;;;;;;;3.83;1.75;;;;;;;11.66;61.06;99346.27;2808474;84;21143;-64
2021/03/12 12:35:46;;;;;;;2.77;2.02;;;;;;;11.62;60.21;99354.75;2808210;84;21162;-64
2021/03/12 12:39:50;;;;;;;5.22;1.45;;;;;;;11.48;59.82;99330.34;2808008;84;21146;-62
2021/03/12 12:43:53;;;;;;;1.50;1.20;;;;;;;11.28;60.84;99336.33;2807888;84;21175;-64
2021/03/12 12:47:57;;;;;;;3.58;1.87;;;;;;;11.13;62.20;99350.20;2808264;84;21151;-66
2021/03/12 12:52:00;;;;;;;2.15;1.95;;;;;;;11.11;60.69;99347.33;2807887;84;21139;-64
2021/03/12 12:56:04;;;;;;;3.25;2.30;;;;;;;11.17;60.86;99361.36;2807965;84;21198;-62
2021/03/12 13:00:11;;;;;;;2.85;2.10;;;;;;;11.21;62.81;99364.08;2808067;84;21142;-64
2021/03/12 13:04:14;;;;;;;4.45;1.70;;;;;;;11.27;59.87;99371.92;2808018;84;21216;-63
2021/03/12 13:08:18;;;;;;;2.42;1.65;;;;;;;11.26;60.39;99361.78;2808772;84;21158;-63
2021/03/12 13:12:21;;;;;;;1.90;1.62;;;;;;;11.42;61.08;99341.11;2813841;84;21182;-63
2021/03/12 13:16:25;;;;;;;3.90;2.00;;;;;;;11.38;59.92;99358.87;2813483;84;21182;-64
2021/03/12 13:20:29;;;;;;;2.62;1.67;;;;;;;11.39;61.49;99357.88;2813548;84;21202;-63
2021/03/12 13:24:32;;;;;;;3.58;2.08;;;;;;;11.43;60.89;99365.92;2813359;84;21190;-63
2021/03/12 13:28:37;;;;;;;4.58;2.50;;;;;;;11.57;60.29;99349.37;2813135;84;21159;-62
2021/03/12 13:32:41;;;;;;;3.95;2.37;;;;;;;11.53;60.45;99360.51;2813206;84;21199;-63
2021/03/12 13:36:45;;;;;;;6.15;2.30;;;;;;;11.35;60.55;99347.20;2813558;84;21143;-63
2021/03/12 13:40:48;;;;;;;6.00;2.10;;;;;;;11.26;62.11;99356.94;2812979;84;21147;-62
2021/03/12 13:44:51;;;;;;;4.90;2.00;;;;;;;11.25;62.36;99366.77;2813598;84;21150;-64
2021/03/12 13:48:54;;;;;;;3.15;1.57;;;;;;;11.21;59.83;99355.24;2813206;84;21130;-63
2021/03/12 13:52:58;;;;;;;3.58;1.92;;;;;;;11.35;60.12;99353.37;2813157;84;21137;-63
2021/03/12 13:57:01;;;;;;;2.40;1.90;;;;;;;11.61;56.29;99355.23;2790406;84;21180;-63
2021/03/12 14:01:04;;;;;;;5.65;1.67;;;;;;;11.85;58.05;99353.23;2761856;85;21188;-63
2021/03/12 14:05:11;;;;;;;3.87;1.75;;;;;;;12.00;57.03;99348.66;2762073;86;21180;-63
2021/03/12 14:09:17;;;;;;;2.50;1.37;;;;;;;11.94;56.22;99348.79;2736297;87;21172;-63
2021/03/12 14:13:20;;;;;;;7.35;2.35;;;;;;;11.89;55.45;99359.09;2756107;86;21193;-63
2021/03/12 14:17:23;;;;;;;6.90;1.67;;;;;;;11.99;55.07;99333.15;2756122;86;21185;-63
2021/03/12 14:21:26;;;;;;;1.92;1.30;;;;;;;12.03;53.73;99339.52;2755889;86;21184;-62
2021/03/12 14:25:31;;;;;;;2.70;1.10;;;;;;;12.06;54.92;99334.72;2756273;86;21149;-61
2021/03/12 14:29:35;;;;;;;2.77;1.10;;;;;;;12.22;54.14;99343.80;2755981;86;21161;-65
2021/03/12 14:33:40;;;;;;;1.55;1.45;;;;;;;12.31;53.81;99340.16;2756195;86;21172;-64
2021/03/12 14:37:43;;;;;;;3.05;1.00;;;;;;;12.42;54.46;99337.70;2758839;84;21200;-63
2021/03/12 14:41:47;;;;;;;2.20;1.32;;;;;;;12.51;53.60;99338.56;2766473;86;21214;-64
2021/03/12 14:45:50;;;;;;;3.40;1.30;;;;;;;12.53;53.85;99340.09;2807743;84;21140;-65
2021/03/12 14:49:53;;;;;;;2.75;1.27;;;;;;;12.51;53.23;99351.42;2805530;84;21193;-65
2021/03/12 14:53:56;;;;;;;5.78;1.98;;;;;;;12.51;54.55;99352.75;2805744;84;21194;-63
2021/03/12 14:57:59;;;;;;;4.05;1.98;;;;;;;12.39;53.68;99350.88;2736161;86;21197;-65
2021/03/12 15:02:03;;;;;;;1.80;1.45;;;;;;;12.27;53.80;99349.48;2784617;83;21178;-66
2021/03/12 15:06:06;;;;;;;2.87;1.82;;;;;;;12.26;53.54;99341.97;2778986;83;21205;-65
2021/03/12 15:10:11;;;;;;;4.70;2.00;;;;;;;12.10;53.27;99348.06;2771446;83;21174;-64
2021/03/12 15:14:14;;;;;;;1.20;0.93;;;;;;;11.89;54.49;99356.91;2750976;85;21182;-63
2021/03/12 15:18:17;;;;;;;5.28;1.07;;;;;;;11.65;55.04;99359.76;2758446;86;21122;-64
2021/03/12 15:22:20;;;;;;;4.15;2.08;;;;;;;11.47;56.07;99352.64;2747095;86;21180;-62
2021/03/12 15:26:24;;;;;;;3.72;2.30;;;;;;;11.35;56.30;99355.19;2719484;87;21175;-64
2021/03/12 15:30:27;;;;;;;6.87;2.20;;;;;;;11.24;55.80;99349.12;2716042;87;21185;-62
2021/03/12 15:34:30;;;;;;;4.15;2.08;;;;;;;11.22;56.25;99348.45;2716482;87;21078;-62
2021/03/12 15:38:33;;;;;;;5.28;2.27;;;;;;;11.16;56.18;99358.35;2715948;87;21152;-63
2021/03/12 15:42:37;;;;;;;3.30;2.22;;;;;;;11.12;55.46;99355.18;2702147;85;21199;-61
2021/03/12 15:46:40;;;;;;;2.80;2.40;;;;;;;11.08;56.20;99363.10;2713975;87;21649;-63
2021/03/12 15:50:43;;;;;;;3.85;2.45;;;;;;;11.04;56.59;99364.91;2718504;86;21211;-63
2021/03/12 15:54:46;;;;;;;2.95;2.02;;;;;;;10.99;56.73;99360.03;2713918;86;21197;-63
2021/03/12 15:58:49;;;;;;;4.65;1.82;;;;;;;11.04;56.85;99356.93;2712101;87;21627;-61
2021/03/12 16:02:54;;;;;;;2.37;2.00;;;;;;;11.06;56.13;99358.94;2728977;85;21147;-64
2021/03/12 16:06:57;;;;;;;5.10;2.72;;;;;;;11.04;56.24;99360.41;2734932;86;21372;-63
2021/03/12 16:11:01;;;;;;;3.52;2.95;;;;;;;10.97;56.77;99354.85;2755982;84;21178;-62
2021/03/12 16:15:08;;;;;;;3.42;2.80;;;;;;;10.80;57.19;99354.34;2743716;85;21150;-62
2021/03/12 16:19:18;;;;;;;3.83;2.60;;;;;;;10.65;57.70;99354.88;2713360;87;21772;-62
2021/03/12 16:23:21;;;;;;;5.30;2.22;;;;;;;10.52;58.05;99349.06;2719935;85;21190;-62
2021/03/12 16:27:25;;;;;;;6.20;3.22;;;;;;;10.49;58.18;99348.03;2713884;87;21187;-62
2021/03/12 16:31:28;;;;;;;3.35;2.00;;;;;;;10.42;58.65;99355.28;2717123;85;21175;-62
2021/03/12 16:35:31;;;;;;;5.25;3.12;;;;;;;10.32;58.93;99354.45;2721634;86;21178;-63
2021/03/12 16:39:35;;;;;;;6.78;2.85;;;;;;;10.19;58.90;99360.10;2714328;87;21592;-63
2021/03/12 16:43:37;;;;;;;4.03;3.25;;;;;;;10.11;59.31;99358.17;2709465;86;21159;-63
2021/03/12 16:47:41;;;;;;;9.30;5.70;;;;;;;10.02;59.62;99363.01;2716014;87;21173;-62
2021/03/12 16:51:45;;;;;;;12.68;7.33;;;;;;;9.95;59.98;99369.89;2719293;87;21191;-64
2021/03/12 16:55:50;;;;;;;8.63;4.72;;;;;;;9.84;60.46;99366.92;2684897;88;21670;-64
2021/03/12 16:59:54;;;;;;;10.93;5.95;;;;;;;9.77;60.68;99367.98;2716221;87;21121;-62
2021/03/12 17:03:57;;;;;;;9.95;4.95;;;;;;;9.68;61.15;99372.33;2693950;88;21198;-63
2021/03/12 17:08:00;;;;;;;13.68;7.60;;;;;;;9.57;61.95;99378.63;2716224;87;21351;-65
2021/03/12 17:12:05;;;;;;;36.55;21.40;;;;;;;9.47;62.31;99373.84;2703894;88;21198;-63
2021/03/12 17:16:08;;;;;;;28.20;18.42;;;;;;;9.37;62.35;99378.30;2756235;86;21177;-62
2021/03/12 17:20:13;;;;;;;20.32;14.38;;;;;;;9.26;62.02;99383.27;2741333;85;21197;-63
2021/03/12 17:24:16;;;;;;;9.08;6.08;;;;;;;9.19;62.12;99376.34;2775082;84;21420;-62
2021/03/12 17:28:19;;;;;;;8.35;4.85;;;;;;;9.12;62.64;99384.02;2749298;86;21206;-63
2021/03/12 17:32:23;;;;;;;6.05;4.62;;;;;;;9.05;62.93;99391.37;2756290;86;21209;-62
2021/03/12 17:36:26;;;;;;;6.33;4.17;;;;;;;8.93;63.45;99387.50;2755668;86;21197;-64
2021/03/12 17:40:31;;;;;;;9.58;5.70;;;;;;;8.83;63.87;99397.23;2793169;85;21124;-63
2021/03/12 17:44:34;;;;;;;7.70;5.15;;;;;;;8.70;64.02;99387.74;2784243;85;21177;-62
2021/03/12 17:48:37;;;;;;;7.25;4.92;;;;;;;8.60;64.25;99390.84;2744466;85;21627;-63
2021/03/12 17:52:42;;;;;;;8.03;5.03;;;;;;;8.53;64.01;99385.73;2748185;86;21183;-63
2021/03/12 17:56:47;;;;;;;7.90;4.53;;;;;;;8.46;63.87;99396.51;2788431;83;21197;-62
2021/03/12 18:00:50;;;;;;;7.42;5.40;;;;;;;8.40;63.89;99397.88;2796483;83;21202;-62
2021/03/12 18:04:55;;;;;;;9.58;5.62;;;;;;;8.34;63.79;99397.91;2790923;84;21119;-62
2021/03/12 18:08:58;;;;;;;22.85;14.23;;;;;;;8.27;63.38;99395.45;2758412;86;21170;-63
2021/03/12 18:13:02;;;;;;;23.20;13.70;;;;;;;8.23;63.28;99396.20;2758520;86;21478;-63
2021/03/12 18:17:05;;;;;;;17.37;12.20;;;;;;;8.18;63.20;99397.09;2759692;85;21201;-62
2021/03/12 18:21:08;;;;;;;25.90;15.35;;;;;;;8.15;63.05;99387.58;2776573;83;21186;-62
2021/03/12 18:25:12;;;;;;;27.95;19.12;;;;;;;8.09;63.09;99393.42;2767036;85;21201;-64
2021/03/12 18:29:14;;;;;;;27.22;16.95;;;;;;;8.04;63.16;99396.09;2772156;85;21190;-62
2021/03/12 18:33:18;;;;;;;25.05;15.32;;;;;;;7.99;63.07;99396.02;2805613;84;21177;-64
2021/03/12 18:37:21;;;;;;;23.27;14.90;;;;;;;7.95;63.25;99399.87;2750067;86;21150;-63
2021/03/12 18:41:27;;;;;;;16.42;13.83;;;;;;;7.86;63.24;99392.25;2744322;86;21173;-63
2021/03/12 18:45:31;;;;;;;18.15;13.65;;;;;;;7.77;63.31;99391.69;2777073;83;21191;-62
2021/03/12 18:49:38;;;;;;;21.10;14.35;;;;;;;7.70;63.35;99386.08;2786557;83;21190;-63
2021/03/12 18:53:41;;;;;;;17.75;12.98;;;;;;;7.65;63.42;99379.02;2793416;84;21170;-63
2021/03/12 18:57:44;;;;;;;16.35;10.60;;;;;;;7.58;63.44;99369.92;2784844;83;21155;-63
2021/03/12 19:01:49;;;;;;;16.10;11.40;;;;;;;7.56;63.27;99367.86;2753605;86;21169;-67
2021/03/12 19:05:53;;;;;;;16.27;10.72;;;;;;;7.53;63.25;99372.09;2733835;86;21189;-65
2021/03/12 19:09:57;;;;;;;12.23;9.55;;;;;;;7.46;63.34;99370.44;2784334;84;21185;-63
2021/03/12 19:14:00;;;;;;;15.58;8.10;;;;;;;7.37;63.91;99372.55;2743846;85;21150;-64
2021/03/12 19:18:06;;;;;;;13.60;7.62;;;;;;;7.24;64.25;99368.26;2750942;85;21202;-63